createdAt,value
2019-02-10T00:00:21.777Z,68.78
2019-02-10T00:02:48.816Z,68.15
2019-02-10T00:05:16.732Z,68.46
2019-02-10T00:07:43.281Z,68.67
2019-02-10T00:10:09.851Z,68.45
2019-02-10T00:12:36.500Z,68.82
2019-02-10T00:15:06.507Z,68.79
2019-02-10T00:17:33.294Z,69.11
2019-02-10T00:19:59.975Z,68.67
2019-02-10T00:22:26.587Z,68.74
2019-02-10T00:24:53.200Z,68.99
2019-02-10T00:27:19.895Z,69.13
2019-02-10T00:29:46.505Z,69.19
2019-02-10T00:32:13.145Z,68.93
2019-02-10T00:34:39.951Z,68.96
2019-02-10T00:37:06.564Z,68.73
2019-02-10T00:39:33.154Z,69.14
2019-02-10T00:42:02.938Z,68.85
2019-02-10T00:44:29.504Z,68.78
2019-02-10T00:46:56.055Z,68.93
2019-02-10T00:50:19.200Z,69.27
2019-02-10T00:52:45.819Z,69.02
2019-02-10T00:55:12.451Z,69.12
2019-02-10T00:57:39.134Z,68.91
2019-02-10T01:00:08.122Z,68.56
2019-02-10T01:02:34.751Z,68.78
2019-02-10T01:05:01.327Z,68.59
2019-02-10T01:07:27.974Z,68.77
2019-02-10T01:09:55.732Z,68.55
2019-02-10T01:12:22.423Z,69.05
2019-02-10T01:14:48.963Z,68.94
2019-02-10T01:17:15.541Z,68.94
2019-02-10T01:19:42.155Z,69.12
2019-02-10T01:22:08.703Z,68.65
2019-02-10T01:24:35.285Z,69.10
2019-02-10T01:27:01.885Z,68.67
2019-02-10T01:29:28.441Z,68.55
2019-02-10T01:31:55.142Z,69.09
2019-02-10T01:34:22.131Z,69.19
2019-02-10T01:36:49.976Z,69.27
2019-02-10T01:39:17.762Z,68.45
2019-02-10T01:41:44.337Z,68.71
2019-02-10T01:44:10.938Z,68.76
2019-02-10T01:46:37.692Z,68.87
2019-02-10T01:49:04.275Z,69.06
2019-02-10T01:51:33.689Z,68.82
2019-02-10T01:54:00.334Z,68.77
2019-02-10T01:56:26.888Z,68.87
2019-02-10T01:58:53.443Z,69.02
2019-02-10T02:01:20.008Z,68.86
2019-02-10T02:03:46.615Z,69.36
2019-02-10T02:06:13.235Z,69.37
2019-02-10T02:08:39.831Z,69.53
2019-02-10T02:11:06.701Z,69.55
2019-02-10T02:13:33.278Z,69.70
2019-02-10T02:15:59.873Z,69.71
2019-02-10T02:18:26.527Z,69.53
2019-02-10T02:20:53.119Z,69.44
2019-02-10T02:23:26.016Z,69.25
2019-02-10T02:25:52.596Z,69.37
2019-02-10T02:28:19.167Z,69.45
2019-02-10T02:30:45.775Z,69.42
2019-02-10T02:33:12.444Z,69.48
2019-02-10T02:35:39.193Z,69.14
2019-02-10T02:38:05.857Z,69.39
2019-02-10T02:40:34.336Z,69.50
2019-02-10T02:43:00.992Z,70.06
2019-02-10T02:45:27.531Z,69.88
2019-02-10T02:47:54.089Z,69.63
2019-02-10T02:50:20.779Z,69.80
2019-02-10T02:52:47.398Z,70.30
2019-02-10T02:55:15.296Z,69.94
2019-02-10T02:57:45.185Z,70.22
2019-02-10T03:00:11.755Z,69.89
2019-02-10T03:02:41.540Z,69.33
2019-02-10T03:05:09.178Z,69.98
2019-02-10T03:07:35.734Z,70.10
2019-02-10T03:10:05.339Z,70.10
2019-02-10T03:12:31.918Z,69.93
2019-02-10T03:14:58.474Z,69.92
2019-02-10T03:17:25.080Z,69.59
2019-02-10T03:19:51.651Z,69.56
2019-02-10T03:22:18.236Z,69.23
2019-02-10T03:24:44.811Z,69.02
2019-02-10T03:27:11.408Z,68.76
2019-02-10T03:29:38.091Z,68.60
2019-02-10T03:32:04.712Z,68.69
2019-02-10T03:34:31.306Z,68.89
2019-02-10T03:36:57.917Z,68.86
2019-02-10T03:39:24.532Z,68.63
2019-02-10T03:41:51.106Z,68.42
2019-02-10T03:44:17.689Z,68.46
2019-02-10T03:46:47.209Z,68.85
2019-02-10T03:49:13.819Z,68.68
2019-02-10T03:51:40.385Z,68.55
2019-02-10T03:54:06.996Z,68.54
2019-02-10T03:56:33.592Z,68.46
2019-02-10T03:59:00.291Z,68.72
2019-02-10T04:01:28.086Z,68.39
2019-02-10T04:03:57.902Z,68.78
2019-02-10T04:06:24.517Z,68.65
2019-02-10T04:08:51.056Z,68.97
2019-02-10T04:11:17.648Z,69.31
2019-02-10T04:13:44.336Z,69.11
2019-02-10T04:16:10.906Z,68.98
2019-02-10T04:18:37.540Z,69.43
2019-02-10T04:21:04.141Z,69.09
2019-02-10T04:23:30.700Z,69.50
2019-02-10T04:25:57.443Z,69.68
2019-02-10T04:28:24.026Z,69.77
2019-02-10T04:30:50.680Z,69.95
2019-02-10T04:33:17.326Z,70.19
2019-02-10T04:35:43.906Z,69.71
2019-02-10T04:38:10.548Z,69.65
2019-02-10T04:40:37.110Z,69.47
2019-02-10T04:43:03.696Z,69.64
2019-02-10T04:45:30.309Z,68.99
2019-02-10T04:47:56.876Z,69.14
2019-02-10T04:50:23.463Z,69.05
2019-02-10T04:52:50.059Z,69.03
2019-02-10T04:55:16.615Z,69.22
2019-02-10T04:57:43.219Z,69.00
2019-02-10T05:00:09.859Z,69.29
2019-02-10T05:02:36.611Z,69.41
2019-02-10T05:05:03.517Z,69.35
2019-02-10T05:07:30.128Z,69.72
2019-02-10T05:09:56.732Z,69.37
2019-02-10T05:12:23.340Z,69.67
2019-02-10T05:14:49.993Z,69.41
2019-02-10T05:17:16.549Z,69.99
2019-02-10T05:19:43.196Z,70.40
2019-02-10T05:22:09.795Z,69.75
2019-02-10T05:24:36.349Z,70.11
2019-02-10T05:27:02.942Z,70.27
2019-02-10T05:29:29.561Z,69.82
2019-02-10T05:31:56.187Z,69.75
2019-02-10T05:34:22.843Z,69.68
2019-02-10T05:36:49.437Z,69.67
2019-02-10T05:39:16.044Z,70.09
2019-02-10T05:41:42.605Z,69.51
2019-02-10T05:44:09.212Z,69.35
2019-02-10T05:46:35.857Z,69.45
2019-02-10T05:49:02.400Z,69.47
2019-02-10T05:51:29.049Z,69.46
2019-02-10T05:53:55.721Z,69.65
2019-02-10T05:56:22.288Z,69.52
2019-02-10T05:58:48.877Z,69.59
2019-02-10T06:01:21.215Z,69.76
2019-02-10T06:03:47.850Z,70.83
2019-02-10T06:06:14.500Z,70.44
2019-02-10T06:08:41.110Z,69.96
2019-02-10T06:11:07.703Z,69.88
2019-02-10T06:13:34.277Z,69.57
2019-02-10T06:16:00.957Z,69.75
2019-02-10T06:18:27.626Z,69.72
2019-02-10T06:20:54.240Z,69.68
2019-02-10T06:23:20.903Z,70.07
2019-02-10T06:25:47.454Z,70.06
2019-02-10T06:28:14.098Z,70.34
2019-02-10T06:30:40.711Z,70.20
2019-02-10T06:33:07.343Z,70.66
2019-02-10T06:35:33.912Z,69.95
2019-02-10T06:38:00.500Z,70.67
2019-02-10T06:40:27.127Z,70.27
2019-02-10T06:42:53.702Z,70.71
2019-02-10T06:45:20.270Z,71.57
2019-02-10T06:47:46.864Z,71.96
2019-02-10T06:50:13.461Z,72.64
2019-02-10T06:52:40.077Z,72.67
2019-02-10T06:55:08.382Z,71.38
2019-02-10T06:57:34.991Z,71.86
2019-02-10T07:00:03.479Z,72.53
2019-02-10T07:02:38.427Z,73.55
2019-02-10T07:05:09.428Z,73.53
2019-02-10T07:07:37.085Z,73.35
2019-02-10T07:10:06.409Z,73.64
2019-02-10T07:12:39.875Z,73.60
2019-02-10T07:15:12.375Z,74.58
2019-02-10T07:17:41.852Z,74.54
2019-02-10T07:20:14.136Z,73.76
2019-02-10T07:22:40.766Z,74.27
2019-02-10T07:25:13.140Z,73.68
2019-02-10T07:27:39.994Z,73.06
2019-02-10T07:30:07.770Z,72.66
2019-02-10T07:32:40.123Z,72.35
2019-02-10T07:35:12.475Z,71.93
2019-02-10T07:37:44.835Z,72.89
2019-02-10T07:40:15.254Z,72.58
2019-02-10T07:42:47.559Z,72.81
2019-02-10T07:45:19.974Z,72.02
2019-02-10T07:47:52.398Z,71.02
2019-02-10T07:50:26.664Z,70.79
2019-02-10T07:52:59.012Z,71.88
2019-02-10T07:55:29.425Z,71.41
2019-02-10T07:58:00.959Z,70.90
2019-02-10T08:00:32.626Z,70.28
2019-02-10T08:03:06.870Z,69.42
2019-02-10T08:05:39.317Z,68.76
2019-02-10T08:08:11.728Z,68.22
2019-02-10T08:10:42.260Z,67.70
2019-02-10T08:13:14.709Z,67.34
2019-02-10T08:15:45.131Z,66.94
2019-02-10T08:18:17.471Z,66.48
2019-02-10T08:20:47.878Z,66.38
2019-02-10T08:23:20.283Z,66.11
2019-02-10T08:25:50.657Z,65.60
2019-02-10T08:28:23.034Z,65.72
2019-02-10T08:30:53.746Z,65.46
2019-02-10T08:33:26.155Z,64.75
2019-02-10T08:35:58.517Z,64.57
2019-02-10T08:38:28.922Z,64.17
2019-02-10T08:41:00.577Z,64.13
2019-02-10T08:43:32.342Z,63.80
2019-02-10T08:46:04.754Z,63.76
2019-02-10T08:48:35.355Z,63.18
2019-02-10T08:51:09.530Z,63.00
2019-02-10T08:53:36.587Z,63.29
2019-02-10T08:56:06.256Z,63.67
2019-02-10T08:58:32.889Z,62.94
2019-02-10T09:00:59.514Z,62.68
2019-02-10T09:03:26.126Z,62.36
2019-02-10T09:05:55.978Z,61.64
2019-02-10T09:08:22.668Z,61.46
2019-02-10T09:10:50.209Z,61.34
2019-02-10T09:13:16.931Z,61.08
2019-02-10T09:15:43.520Z,61.43
2019-02-10T09:18:10.112Z,61.54
2019-02-10T09:20:36.796Z,61.02
2019-02-10T09:23:03.450Z,60.88
2019-02-10T09:26:26.327Z,60.53
2019-02-10T09:28:52.992Z,60.38
2019-02-10T09:31:19.667Z,59.90
2019-02-10T09:33:46.282Z,59.75
2019-02-10T09:36:12.872Z,59.59
2019-02-10T09:38:39.740Z,59.15
2019-02-10T09:41:06.499Z,59.15
2019-02-10T09:43:33.219Z,58.63
2019-02-10T09:45:59.864Z,58.98
2019-02-10T09:48:26.465Z,58.85
2019-02-10T09:50:53.088Z,58.33
2019-02-10T09:53:19.722Z,58.72
2019-02-10T09:55:46.375Z,57.78
2019-02-10T09:58:15.724Z,57.87
2019-02-10T10:00:42.301Z,57.78
2019-02-10T10:03:08.979Z,57.72
2019-02-10T10:05:35.554Z,57.43
2019-02-10T10:08:02.127Z,57.25
2019-02-10T10:10:28.979Z,57.39
2019-02-10T10:12:55.534Z,56.75
2019-02-10T10:15:22.164Z,56.93
2019-02-10T10:17:48.771Z,57.05
2019-02-10T10:20:17.326Z,56.76
2019-02-10T10:22:43.943Z,56.33
2019-02-10T10:25:10.558Z,56.26
2019-02-10T10:27:37.294Z,56.49
2019-02-10T10:30:09.638Z,55.96
2019-02-10T10:32:39.077Z,55.92
2019-02-10T10:35:06.638Z,55.99
2019-02-10T10:37:33.440Z,55.41
2019-02-10T10:40:00.012Z,54.77
2019-02-10T10:42:26.747Z,55.15
2019-02-10T10:44:53.306Z,55.25
2019-02-10T10:47:19.890Z,55.13
2019-02-10T10:49:46.520Z,54.34
2019-02-10T10:52:13.130Z,54.83
2019-02-10T10:54:42.842Z,55.27
2019-02-10T10:57:08.422Z,55.38
2019-02-10T10:59:35.004Z,54.97
2019-02-10T11:02:03.584Z,54.88
2019-02-10T11:04:30.263Z,55.16
2019-02-10T11:06:56.827Z,54.89
2019-02-10T11:09:23.457Z,54.65
2019-02-10T11:11:51.883Z,54.47
2019-02-10T11:14:18.663Z,54.32
2019-02-10T11:16:45.300Z,54.41
2019-02-10T11:19:11.895Z,54.79
2019-02-10T11:21:38.557Z,55.03
2019-02-10T11:24:05.187Z,54.90
2019-02-10T11:26:31.818Z,54.18
2019-02-10T11:28:58.594Z,54.33
2019-02-10T11:31:25.252Z,54.29
2019-02-10T11:33:51.883Z,54.45
2019-02-10T11:36:18.519Z,54.31
2019-02-10T11:38:45.148Z,53.90
2019-02-10T11:41:11.815Z,54.13
2019-02-10T11:43:38.605Z,53.40
2019-02-10T11:46:05.388Z,53.16
2019-02-10T11:48:31.997Z,53.40
2019-02-10T11:50:58.618Z,52.93
2019-02-10T11:53:25.189Z,52.56
2019-02-10T11:56:48.427Z,53.14
2019-02-10T11:59:15.121Z,52.98
2019-02-10T12:01:41.758Z,52.83
2019-02-10T12:04:08.438Z,52.29
2019-02-10T12:06:35.085Z,52.81
2019-02-10T12:09:01.717Z,52.37
2019-02-10T12:11:32.700Z,52.81
2019-02-10T12:13:59.356Z,52.78
2019-02-10T12:16:26.159Z,52.67
2019-02-10T12:18:52.788Z,52.51
2019-02-10T12:21:19.470Z,52.22
2019-02-10T12:23:46.218Z,52.03
2019-02-10T12:26:12.972Z,52.14
2019-02-10T12:28:39.631Z,51.79
2019-02-10T12:31:06.264Z,51.83
2019-02-10T12:33:32.825Z,52.10
2019-02-10T12:35:59.446Z,52.70
2019-02-10T12:38:29.283Z,52.49
2019-02-10T12:40:55.922Z,52.55
2019-02-10T12:43:22.476Z,52.48
2019-02-10T12:45:49.123Z,52.07
2019-02-10T12:48:15.763Z,51.98
2019-02-10T12:50:42.382Z,52.40
2019-02-10T12:53:08.997Z,51.85
2019-02-10T12:55:35.564Z,51.68
2019-02-10T12:58:02.189Z,51.49
2019-02-10T13:00:28.859Z,51.33
2019-02-10T13:02:55.473Z,52.32
2019-02-10T13:05:22.159Z,52.21
2019-02-10T13:07:48.737Z,52.67
2019-02-10T13:10:17.802Z,51.90
2019-02-10T13:12:44.032Z,51.88
2019-02-10T13:15:11.825Z,51.89
2019-02-10T13:17:38.572Z,52.11
2019-02-10T13:20:08.966Z,51.66
2019-02-10T13:22:35.560Z,51.14
2019-02-10T13:25:05.129Z,51.16
2019-02-10T13:27:31.745Z,51.57
2019-02-10T13:29:58.426Z,51.96
2019-02-10T13:32:25.035Z,51.48
2019-02-10T13:34:51.632Z,51.68
2019-02-10T13:37:18.318Z,52.17
2019-02-10T13:39:44.916Z,51.96
2019-02-10T13:42:11.495Z,52.40
2019-02-10T13:44:38.203Z,52.04
2019-02-10T13:47:04.929Z,52.04
2019-02-10T13:49:31.475Z,52.01
2019-02-10T13:51:58.046Z,51.80
2019-02-10T13:54:24.673Z,51.76
2019-02-10T13:56:52.518Z,52.69
2019-02-10T13:59:19.141Z,53.28
2019-02-10T14:01:45.729Z,52.85
2019-02-10T14:04:12.378Z,52.58
2019-02-10T14:06:39.081Z,52.71
2019-02-10T14:09:06.330Z,52.63
2019-02-10T14:11:33.145Z,52.25
2019-02-10T14:13:59.836Z,52.24
2019-02-10T14:16:26.490Z,52.72
2019-02-10T14:18:53.297Z,51.95
2019-02-10T14:21:20.081Z,52.21
2019-02-10T14:23:46.651Z,52.67
2019-02-10T14:26:13.261Z,52.86
2019-02-10T14:28:39.929Z,52.75
2019-02-10T14:31:06.599Z,52.38
2019-02-10T14:33:38.743Z,52.89
2019-02-10T14:36:02.226Z,52.58
2019-02-10T14:38:36.143Z,53.45
2019-02-10T14:40:57.393Z,53.60
2019-02-10T14:43:24.103Z,53.83
2019-02-10T14:45:50.662Z,54.01
2019-02-10T14:48:17.238Z,53.97
2019-02-10T14:50:43.871Z,54.49
2019-02-10T14:53:10.610Z,54.33
2019-02-10T14:55:37.206Z,54.76
2019-02-10T14:58:03.778Z,54.36
2019-02-10T15:00:30.389Z,54.75
2019-02-10T15:02:57.065Z,55.65
2019-02-10T15:05:23.663Z,55.77
2019-02-10T15:07:50.328Z,55.96
2019-02-10T15:10:20.874Z,55.62
2019-02-10T15:12:47.537Z,55.34
2019-02-10T15:15:14.117Z,55.25
2019-02-10T15:17:40.837Z,55.40
2019-02-10T15:20:09.677Z,55.32
2019-02-10T15:22:36.271Z,55.21
2019-02-10T15:25:07.816Z,55.29
2019-02-10T15:27:35.639Z,55.13
2019-02-10T15:30:07.116Z,55.19
2019-02-10T15:32:33.707Z,55.12
2019-02-10T15:35:00.349Z,55.30
2019-02-10T15:37:26.967Z,55.54
2019-02-10T15:39:53.554Z,56.61
2019-02-10T15:42:20.105Z,56.06
2019-02-10T15:44:46.722Z,56.17
2019-02-10T15:47:13.371Z,56.44
2019-02-10T15:49:40.178Z,56.35
2019-02-10T15:52:06.774Z,56.11
2019-02-10T15:54:33.328Z,55.80
2019-02-10T15:57:01.163Z,56.59
2019-02-10T15:59:27.776Z,56.48
2019-02-10T16:01:54.368Z,56.49
2019-02-10T16:04:22.143Z,56.26
2019-02-10T16:06:48.787Z,56.37
2019-02-10T16:09:15.350Z,56.77
2019-02-10T16:11:41.992Z,56.94
2019-02-10T16:14:09.656Z,57.03
2019-02-10T16:16:36.222Z,57.27
2019-02-10T16:19:02.769Z,57.30
2019-02-10T16:21:29.390Z,57.62
2019-02-10T16:23:55.954Z,57.32
2019-02-10T16:26:22.534Z,57.27
2019-02-10T16:28:49.180Z,57.42
2019-02-10T16:31:15.754Z,56.87
2019-02-10T16:33:42.392Z,57.34
2019-02-10T16:36:09.021Z,57.18
2019-02-10T16:38:35.606Z,57.40
2019-02-10T16:41:06.419Z,57.53
2019-02-10T16:43:30.726Z,57.69
2019-02-10T16:45:57.376Z,57.33
2019-02-10T16:48:23.983Z,57.26
2019-02-10T16:50:50.620Z,57.62
2019-02-10T16:53:17.316Z,57.64
2019-02-10T16:55:44.049Z,57.60
2019-02-10T16:58:10.637Z,57.42
2019-02-10T17:00:37.336Z,57.65
2019-02-10T17:03:04.006Z,57.59
2019-02-10T17:05:30.668Z,57.81
2019-02-10T17:07:57.358Z,57.93
2019-02-10T17:10:23.967Z,57.28
2019-02-10T17:12:50.609Z,57.68
2019-02-10T17:15:17.161Z,57.94
2019-02-10T17:17:43.794Z,57.79
2019-02-10T17:20:11.741Z,57.25
2019-02-10T17:22:39.881Z,57.11
2019-02-10T17:25:11.676Z,57.41
2019-02-10T17:27:38.304Z,57.28
2019-02-10T17:30:10.031Z,57.57
2019-02-10T17:32:36.657Z,57.28
2019-02-10T17:35:07.949Z,57.43
2019-02-10T17:37:34.652Z,57.31
2019-02-10T17:40:01.268Z,57.55
2019-02-10T17:42:27.947Z,57.48
2019-02-10T17:44:54.684Z,57.38
2019-02-10T17:47:21.389Z,57.23
2019-02-10T17:49:48.137Z,56.76
2019-02-10T17:52:14.929Z,57.20
2019-02-10T17:54:42.167Z,56.59
2019-02-10T17:57:08.936Z,56.78
2019-02-10T17:59:35.634Z,56.96
2019-02-10T18:02:02.382Z,56.55
2019-02-10T18:04:37.221Z,57.18
2019-02-10T18:06:57.605Z,56.54
2019-02-10T18:09:24.268Z,56.66
2019-02-10T18:11:50.954Z,57.06
2019-02-10T18:14:19.444Z,57.25
2019-02-10T18:16:47.974Z,56.90
2019-02-10T18:19:16.497Z,57.09
2019-02-10T18:21:45.085Z,56.48
2019-02-10T18:24:15.699Z,56.67
2019-02-10T18:26:44.379Z,57.40
2019-02-10T18:29:14.177Z,57.14
2019-02-10T18:31:42.782Z,57.34
2019-02-10T18:34:11.443Z,57.47
2019-02-10T18:36:40.195Z,57.64
2019-02-10T18:39:08.762Z,57.32
2019-02-10T18:41:39.278Z,57.48
2019-02-10T18:44:10.383Z,57.36
2019-02-10T18:46:39.169Z,56.98
2019-02-10T18:49:07.674Z,56.92
2019-02-10T18:51:38.543Z,57.36
2019-02-10T18:54:07.447Z,57.85
2019-02-10T18:56:36.213Z,57.36
2019-02-10T18:59:05.420Z,57.36
2019-02-10T19:01:33.972Z,57.48
2019-02-10T19:04:02.571Z,57.44
2019-02-10T19:06:31.190Z,57.58
2019-02-10T19:09:03.842Z,57.58
2019-02-10T19:11:30.153Z,57.61
2019-02-10T19:14:01.674Z,57.66
2019-02-10T19:16:31.300Z,58.26
2019-02-10T19:18:57.907Z,58.13
2019-02-10T19:21:26.551Z,57.56
2019-02-10T19:23:55.459Z,57.60
2019-02-10T19:26:24.401Z,57.23
2019-02-10T19:29:52.113Z,58.18
2019-02-10T19:32:20.921Z,57.91
2019-02-10T19:34:49.734Z,58.01
2019-02-10T19:37:18.559Z,58.21
2019-02-10T19:39:47.490Z,58.32
2019-02-10T19:42:16.600Z,58.14
2019-02-10T19:44:45.608Z,58.00
2019-02-10T19:47:14.448Z,57.71
2019-02-10T19:49:43.425Z,57.90
2019-02-10T19:52:12.309Z,57.97
2019-02-10T19:54:41.304Z,57.38
2019-02-10T19:57:10.341Z,57.45
2019-02-10T19:59:39.422Z,57.48
2019-02-10T20:02:08.582Z,57.63
2019-02-10T20:04:37.811Z,58.05
2019-02-10T20:08:03.495Z,57.62
2019-02-10T20:10:32.628Z,57.64
2019-02-10T20:13:01.487Z,57.27
2019-02-10T20:15:30.415Z,57.30
2019-02-10T20:18:00.479Z,57.37
2019-02-10T20:20:29.407Z,57.31
2019-02-10T20:22:56.663Z,57.25
2019-02-10T20:25:25.553Z,57.49
2019-02-10T20:27:54.383Z,57.33
2019-02-10T20:30:23.308Z,57.38
2019-02-10T20:32:54.162Z,57.35
2019-02-10T20:35:23.184Z,57.59
2019-02-10T20:37:52.005Z,57.58
2019-02-10T20:40:20.840Z,57.80
2019-02-10T20:42:49.826Z,58.13
2019-02-10T20:45:18.810Z,57.88
2019-02-10T20:47:47.746Z,58.31
2019-02-10T20:50:16.759Z,58.18
2019-02-10T20:52:46.514Z,58.37
2019-02-10T20:55:15.824Z,58.18
2019-02-10T20:57:44.624Z,58.21
2019-02-10T21:00:13.509Z,58.06
2019-02-10T21:02:42.447Z,58.37
2019-02-10T21:05:11.931Z,58.54
2019-02-10T21:07:40.883Z,58.92
2019-02-10T21:10:10.772Z,58.87
2019-02-10T21:12:40.108Z,58.42
2019-02-10T21:15:10.671Z,58.55
2019-02-10T21:17:39.667Z,58.53
2019-02-10T21:20:10.973Z,58.63
2019-02-10T21:22:39.835Z,58.87
2019-02-10T21:25:09.413Z,59.04
2019-02-10T21:27:38.362Z,59.13
2019-02-10T21:30:11.262Z,59.71
2019-02-10T21:32:40.290Z,59.85
2019-02-10T21:35:09.161Z,59.53
2019-02-10T21:37:38.094Z,59.53
2019-02-10T21:40:08.864Z,59.63
2019-02-10T21:42:37.794Z,59.72
2019-02-10T21:45:08.661Z,60.50
2019-02-10T21:47:37.603Z,59.78
2019-02-10T21:50:06.613Z,59.91
2019-02-10T21:52:33.750Z,60.36
2019-02-10T21:55:01.292Z,60.00
2019-02-10T21:57:30.080Z,60.02
2019-02-10T21:59:57.860Z,60.19
2019-02-10T22:02:26.051Z,60.64
2019-02-10T22:04:52.926Z,60.31
2019-02-10T22:07:20.282Z,60.40
2019-02-10T22:09:47.338Z,60.38
2019-02-10T22:12:14.235Z,60.38
2019-02-10T22:14:41.866Z,60.11
2019-02-10T22:17:09.103Z,59.70
2019-02-10T22:19:37.342Z,60.36
2019-02-10T22:22:04.527Z,60.75
2019-02-10T22:24:31.473Z,60.51
2019-02-10T22:26:58.949Z,59.99
2019-02-10T22:29:26.089Z,60.85
2019-02-10T22:31:52.972Z,60.99
2019-02-10T22:34:20.380Z,60.94
2019-02-10T22:36:49.732Z,60.83
2019-02-10T22:39:16.838Z,60.65
2019-02-10T22:41:43.847Z,60.73
2019-02-10T22:44:10.805Z,61.25
2019-02-10T22:46:37.785Z,61.32
2019-02-10T22:49:05.016Z,61.00
2019-02-10T22:51:32.033Z,61.28
2019-02-10T22:53:58.893Z,61.17
2019-02-10T22:56:26.259Z,61.87
2019-02-10T22:58:53.170Z,61.62
2019-02-10T23:01:20.059Z,61.50
2019-02-10T23:03:46.961Z,61.30
2019-02-10T23:06:13.919Z,60.92
2019-02-10T23:08:40.916Z,61.54
2019-02-10T23:11:07.887Z,61.20
2019-02-10T23:13:34.963Z,61.50
2019-02-10T23:16:02.034Z,61.20
2019-02-10T23:18:28.910Z,61.38
2019-02-10T23:20:55.885Z,62.07
2019-02-10T23:23:22.742Z,61.76
2019-02-10T23:25:49.944Z,61.69
2019-02-10T23:28:20.026Z,61.74
2019-02-10T23:30:46.893Z,61.59
2019-02-10T23:33:13.885Z,61.77
2019-02-10T23:35:40.893Z,61.85
2019-02-10T23:38:07.878Z,63.33
2019-02-10T23:40:35.009Z,62.33
2019-02-10T23:43:02.487Z,62.23
2019-02-10T23:45:29.823Z,62.12
2019-02-10T23:47:56.734Z,61.99
2019-02-10T23:50:23.683Z,61.90
2019-02-10T23:52:50.612Z,61.97
2019-02-10T23:55:17.645Z,61.24
2019-02-10T23:57:44.777Z,61.31
